Time;durP1;ratioP1;P1;durP2;ratioP2;P2;SDS_P1;SDS_P2;PMS_P1;PMS_P2;Temp;Humidity;BMP_temperature;BMP_pressure;BME280_temperature;BME280_humidity;BME280_pressure;Samples;Min_cycle;Max_cycle;Signal;HPM_P1;HPM_P2
2023/10/23 04:02:32;;;;;;;1.80;1.30;;;10.00;78.90;;;;;;5147643;23;20504;-73
2023/10/23 04:05:00;;;;;;;2.17;1.20;;;10.00;78.70;;;;;;4995319;28;20445;-73
2023/10/23 04:07:26;;;;;;;1.67;1.00;;;10.00;78.60;;;;;;4995048;28;20539;-74
2023/10/23 04:09:53;;;;;;;1.60;1.20;;;10.00;78.60;;;;;;4995064;28;20493;-73
2023/10/23 04:12:20;;;;;;;1.60;1.10;;;10.00;78.50;;;;;;4995238;28;20471;-73
2023/10/23 04:14:46;;;;;;;1.50;1.10;;;10.00;78.30;;;;;;4995335;28;20460;-70
2023/10/23 04:17:13;;;;;;;1.70;1.20;;;10.00;78.40;;;;;;4994503;28;20807;-70
2023/10/23 04:19:41;;;;;;;2.37;1.07;;;10.00;78.40;;;;;;4994454;28;20442;-70
2023/10/23 04:22:08;;;;;;;2.00;1.27;;;10.00;78.30;;;;;;4994379;28;20461;-70
2023/10/23 04:24:34;;;;;;;1.60;0.90;;;10.00;78.40;;;;;;4994096;28;20969;-70
2023/10/23 04:27:01;;;;;;;1.73;0.90;;;10.00;78.50;;;;;;4994027;28;20964;-70
2023/10/23 04:29:28;;;;;;;1.90;1.00;;;9.90;78.70;;;;;;4994222;28;20481;-70
2023/10/23 04:31:54;;;;;;;1.60;1.00;;;9.90;78.60;;;;;;4994216;28;20469;-70
2023/10/23 04:34:21;;;;;;;2.53;1.13;;;9.90;78.70;;;;;;4994216;28;20453;-70
2023/10/23 04:36:49;;;;;;;1.80;1.10;;;9.80;78.90;;;;;;4994196;28;20468;-70
2023/10/23 04:39:16;;;;;;;1.67;1.00;;;9.80;79.10;;;;;;4993735;28;20818;-70
2023/10/23 04:41:43;;;;;;;3.43;1.40;;;9.80;79.00;;;;;;4993780;28;20829;-70
2023/10/23 04:44:09;;;;;;;1.73;1.20;;;9.80;79.00;;;;;;4994112;28;20819;-70
2023/10/23 04:46:36;;;;;;;2.60;1.50;;;9.70;79.30;;;;;;4994040;28;20468;-70
2023/10/23 04:49:03;;;;;;;2.30;1.90;;;9.80;79.10;;;;;;4993964;28;20448;-70
2023/10/23 04:51:30;;;;;;;2.23;1.60;;;9.80;78.90;;;;;;4993933;28;20476;-70
2023/10/23 04:53:58;;;;;;;1.80;1.50;;;9.80;78.70;;;;;;4993660;28;20449;-70
2023/10/23 04:56:24;;;;;;;1.50;1.03;;;9.80;78.60;;;;;;4993663;28;20518;-70
2023/10/23 04:58:52;;;;;;;1.40;1.00;;;9.80;78.50;;;;;;4993925;28;20445;-70
2023/10/23 05:01:18;;;;;;;1.40;1.00;;;9.80;78.40;;;;;;4993637;28;20481;-70
2023/10/23 05:03:45;;;;;;;2.00;1.40;;;9.80;78.60;;;;;;4993879;28;20440;-71
2023/10/23 05:06:12;;;;;;;1.50;1.00;;;9.70;78.50;;;;;;4993857;28;20448;-70
2023/10/23 05:08:39;;;;;;;1.97;1.30;;;9.70;78.40;;;;;;4993477;28;20931;-70
2023/10/23 05:11:07;;;;;;;1.77;0.90;;;9.70;78.60;;;;;;4993663;28;20489;-70
2023/10/23 05:13:34;;;;;;;2.47;1.60;;;9.70;78.40;;;;;;4993817;28;20445;-70
2023/10/23 05:16:05;;;;;;;2.00;1.80;;;9.70;78.50;;;;;;4993705;28;20496;-70
2023/10/23 05:18:31;;;;;;;2.03;1.23;;;9.50;79.10;;;;;;4993739;28;20828;-71
2023/10/23 05:20:58;;;;;;;2.90;1.20;;;9.60;79.00;;;;;;4993637;28;20465;-70
2023/10/23 05:23:25;;;;;;;2.23;1.30;;;9.50;78.90;;;;;;4993634;28;20453;-70
2023/10/23 05:25:52;;;;;;;1.77;1.30;;;9.50;78.90;;;;;;4993529;28;20544;-70
2023/10/23 05:28:20;;;;;;;1.83;1.20;;;9.50;78.60;;;;;;4993686;28;20437;-70
2023/10/23 05:30:46;;;;;;;1.80;1.40;;;9.50;78.70;;;;;;4993481;28;20495;-70
2023/10/23 05:33:13;;;;;;;1.93;1.00;;;9.50;78.70;;;;;;4993309;28;20949;-70
2023/10/23 05:35:40;;;;;;;2.20;1.20;;;9.50;78.80;;;;;;4993588;28;20546;-70
2023/10/23 05:38:06;;;;;;;2.07;1.00;;;9.60;78.70;;;;;;4993553;28;20449;-70
2023/10/23 05:40:33;;;;;;;1.90;1.20;;;9.60;78.70;;;;;;4993507;28;20448;-71
2023/10/23 05:43:00;;;;;;;1.90;1.30;;;9.50;79.10;;;;;;4993531;28;20468;-70
2023/10/23 05:45:28;;;;;;;1.77;1.23;;;9.50;79.10;;;;;;4993207;28;20441;-70
2023/10/23 05:47:55;;;;;;;1.60;1.40;;;9.60;79.30;;;;;;4993478;28;20454;-70
2023/10/23 05:50:21;;;;;;;3.27;1.10;;;9.60;79.20;;;;;;4993335;28;20477;-70
2023/10/23 05:52:48;;;;;;;2.10;1.50;;;9.60;79.20;;;;;;4996520;28;20968;-70
2023/10/23 05:55:15;;;;;;;2.17;1.40;;;9.60;79.20;;;;;;4997157;28;20876;-70
2023/10/23 05:57:41;;;;;;;2.20;1.40;;;9.60;79.20;;;;;;4996815;28;20957;-72
2023/10/23 06:00:09;;;;;;;1.80;1.50;;;9.60;79.50;;;;;;4997087;28;20448;-69
2023/10/23 06:02:37;;;;;;;2.23;1.70;;;9.60;79.50;;;;;;4996645;28;20612;-69
2023/10/23 06:05:04;;;;;;;5.43;1.93;;;9.60;79.70;;;;;;4997009;28;20456;-69
2023/10/23 06:07:31;;;;;;;2.37;1.77;;;9.60;79.70;;;;;;4996622;28;20477;-70
2023/10/23 06:09:59;;;;;;;1.80;1.30;;;9.60;79.30;;;;;;4996508;28;21039;-70
2023/10/23 06:12:26;;;;;;;26.57;23.87;;;9.60;79.10;;;;;;4996536;28;20473;-70
2023/10/23 06:14:53;;;;;;;26.53;23.83;;;9.60;79.00;;;;;;4996512;28;20843;-70
2023/10/23 06:17:19;;;;;;;4.07;3.67;;;9.60;78.90;;;;;;4996756;28;20445;-70
2023/10/23 06:19:48;;;;;;;11.33;10.23;;;9.70;78.90;;;;;;4996408;28;21005;-70
2023/10/23 06:22:14;;;;;;;6.53;5.93;;;9.70;78.80;;;;;;4996630;28;20556;-70
2023/10/23 06:24:41;;;;;;;6.40;5.87;;;9.60;78.50;;;;;;4996593;28;20445;-70
2023/10/23 06:27:08;;;;;;;4.40;3.23;;;9.60;78.50;;;;;;4996578;28;20441;-70
2023/10/23 06:29:34;;;;;;;2.73;2.00;;;9.70;78.10;;;;;;4996442;28;20453;-70
2023/10/23 06:32:02;;;;;;;4.37;3.37;;;9.70;77.50;;;;;;4996102;28;20981;-70
2023/10/23 06:34:29;;;;;;;5.30;3.97;;;9.90;77.70;;;;;;4996088;28;20449;-70
2023/10/23 06:36:57;;;;;;;3.70;2.80;;;10.00;77.70;;;;;;4996341;28;20449;-71
2023/10/23 06:39:23;;;;;;;2.87;2.30;;;10.40;78.10;;;;;;4996344;28;20447;-69
2023/10/23 06:41:50;;;;;;;3.63;2.77;;;11.00;77.40;;;;;;4995941;28;20465;-69
2023/10/23 06:44:19;;;;;;;2.97;2.67;;;11.70;75.10;;;;;;4996246;28;20449;-69
2023/10/23 06:46:45;;;;;;;2.07;1.30;;;12.10;73.50;;;;;;4996161;28;20819;-69
2023/10/23 06:49:12;;;;;;;2.70;1.70;;;12.20;72.80;;;;;;4996117;28;20448;-69
2023/10/23 06:51:39;;;;;;;3.40;1.70;;;12.20;73.00;;;;;;4995971;28;20488;-69
2023/10/23 06:54:07;;;;;;;2.03;1.60;;;12.10;73.00;;;;;;4996071;28;20445;-69
2023/10/23 06:56:34;;;;;;;2.83;1.40;;;11.60;74.00;;;;;;4996014;28;20445;-69
2023/10/23 06:59:00;;;;;;;2.00;1.70;;;11.30;75.10;;;;;;4995971;28;20445;-69
2023/10/23 07:01:27;;;;;;;2.20;1.47;;;10.70;76.50;;;;;;4995626;28;20484;-69
2023/10/23 07:03:54;;;;;;;1.90;1.47;;;10.50;77.30;;;;;;4995064;28;20521;-69
2023/10/23 07:06:20;;;;;;;1.80;1.60;;;10.30;77.70;;;;;;4995816;28;20441;-69
2023/10/23 07:08:47;;;;;;;1.80;1.37;;;10.20;78.30;;;;;;4995801;28;20449;-69
2023/10/23 07:11:17;;;;;;;1.90;1.60;;;10.30;78.10;;;;;;4995326;28;20997;-69
2023/10/23 07:13:44;;;;;;;2.10;1.30;;;10.30;78.00;;;;;;4995751;28;20517;-69
2023/10/23 07:16:11;;;;;;;1.90;1.40;;;10.40;78.10;;;;;;4996210;28;20453;-69
2023/10/23 07:18:37;;;;;;;1.70;1.17;;;10.40;78.30;;;;;;4995648;28;20456;-69
2023/10/23 07:21:04;;;;;;;2.67;1.60;;;10.40;78.70;;;;;;4995512;28;20473;-69
2023/10/23 07:23:31;;;;;;;2.10;1.60;;;10.50;78.90;;;;;;4995488;28;20460;-69
2023/10/23 07:26:10;;;;;;;2.50;1.93;;;10.60;78.90;;;;;;4995505;28;20457;-69
2023/10/23 07:28:39;;;;;;;2.27;1.53;;;10.60;79.00;;;;;;4995221;28;20899;-69
2023/10/23 07:31:06;;;;;;;2.50;1.70;;;10.60;79.20;;;;;;4995258;28;20524;-69
2023/10/23 07:33:33;;;;;;;3.27;1.87;;;10.70;79.40;;;;;;4995043;28;20942;-69
2023/10/23 07:36:01;;;;;;;2.40;1.90;;;10.80;79.60;;;;;;4995344;28;20452;-69
2023/10/23 07:38:28;;;;;;;1.70;1.40;;;10.70;80.10;;;;;;4995266;28;20437;-69
2023/10/23 07:40:55;;;;;;;2.53;1.40;;;10.70;80.60;;;;;;4995124;28;20461;-69
2023/10/23 07:43:22;;;;;;;2.23;1.50;;;10.90;80.10;;;;;;4995144;28;20452;-71
2023/10/23 07:45:50;;;;;;;2.00;1.30;;;11.00;80.10;;;;;;4994774;28;20441;-70
2023/10/23 07:48:17;;;;;;;2.00;1.47;;;11.10;80.00;;;;;;4994790;28;20487;-70
2023/10/23 07:50:44;;;;;;;2.33;1.53;;;11.10;80.20;;;;;;4994914;28;20579;-70
2023/10/23 07:53:11;;;;;;;1.90;1.20;;;11.10;80.60;;;;;;4994696;28;20942;-70
2023/10/23 07:55:38;;;;;;;3.13;2.27;;;11.20;80.90;;;;;;4994953;28;20452;-70
2023/10/23 07:58:05;;;;;;;1.90;1.47;;;11.30;81.10;;;;;;4994882;28;20477;-70
2023/10/23 08:00:31;;;;;;;3.00;1.70;;;11.40;81.20;;;;;;4994713;28;20452;-70
2023/10/23 08:02:59;;;;;;;3.03;1.70;;;11.50;80.90;;;;;;4994860;28;20441;-71
2023/10/23 08:05:26;;;;;;;3.20;1.63;;;11.40;81.40;;;;;;4994560;28;20556;-70
2023/10/23 08:07:53;;;;;;;2.50;1.70;;;11.50;81.00;;;;;;4994480;28;20945;-70
2023/10/23 08:10:19;;;;;;;6.93;2.30;;;11.60;80.90;;;;;;4994357;28;20894;-70
2023/10/23 08:12:47;;;;;;;2.30;1.60;;;11.70;80.70;;;;;;4995552;28;20830;-70
2023/10/23 08:15:14;;;;;;;2.10;1.87;;;11.50;80.90;;;;;;4994533;28;20489;-70
2023/10/23 08:17:41;;;;;;;2.30;2.00;;;11.30;82.10;;;;;;4994606;28;20460;-70
2023/10/23 08:20:10;;;;;;;2.70;1.87;;;11.20;82.20;;;;;;4994433;28;20484;-70
2023/10/23 08:22:36;;;;;;;6.07;5.50;;;11.20;82.70;;;;;;4994097;28;20846;-70
2023/10/23 08:25:04;;;;;;;3.60;3.30;;;11.20;81.30;;;;;;4994401;28;20449;-70
2023/10/23 08:27:31;;;;;;;3.70;2.70;;;11.20;81.70;;;;;;4994378;28;20449;-70
2023/10/23 08:29:58;;;;;;;3.60;3.00;;;11.30;81.70;;;;;;4994376;28;20480;-70
2023/10/23 08:32:24;;;;;;;3.43;2.60;;;11.50;81.10;;;;;;4993895;28;20504;-71
2023/10/23 08:34:53;;;;;;;4.23;3.10;;;11.60;80.10;;;;;;4994009;28;20456;-71
2023/10/23 08:37:21;;;;;;;2.47;2.27;;;11.70;80.20;;;;;;4994220;28;20503;-70
2023/10/23 08:39:48;;;;;;;3.00;2.30;;;11.60;79.70;;;;;;4994194;28;20536;-70
2023/10/23 08:42:15;;;;;;;3.20;2.80;;;11.70;80.20;;;;;;4994067;28;20469;-70
2023/10/23 08:44:43;;;;;;;3.07;2.60;;;11.90;79.70;;;;;;4994092;28;20476;-70
2023/10/23 08:47:10;;;;;;;4.30;2.70;;;12.00;79.80;;;;;;4994091;28;20499;-70
2023/10/23 08:49:37;;;;;;;3.13;2.10;;;12.10;80.10;;;;;;4993988;28;20456;-70
2023/10/23 08:52:07;;;;;;;2.50;2.20;;;12.00;79.90;;;;;;4993525;28;20911;-70
2023/10/23 08:54:35;;;;;;;2.70;2.20;;;12.30;79.50;;;;;;4994130;28;20434;-70
2023/10/23 08:57:03;;;;;;;4.00;2.63;;;12.40;78.90;;;;;;4994168;28;20452;-71
2023/10/23 08:59:31;;;;;;;2.57;2.30;;;12.50;79.00;;;;;;4994101;28;20490;-71
2023/10/23 09:01:57;;;;;;;2.67;2.27;;;12.60;78.70;;;;;;4993926;28;20519;-70
2023/10/23 09:04:24;;;;;;;1.83;1.67;;;12.70;78.60;;;;;;4994053;28;20452;-69
2023/10/23 09:06:56;;;;;;;2.03;1.83;;;12.70;78.50;;;;;;4994270;28;20445;-70
2023/10/23 09:09:24;;;;;;;2.50;2.00;;;12.60;78.60;;;;;;4994318;28;20449;-72
2023/10/23 09:11:52;;;;;;;2.50;2.10;;;12.60;78.40;;;;;;4993682;28;20503;-70
2023/10/23 09:14:24;;;;;;;3.73;2.37;;;12.60;78.00;;;;;;4993516;28;20954;-70
2023/10/23 09:16:52;;;;;;;2.60;2.40;;;12.60;79.10;;;;;;4993810;28;20460;-71
2023/10/23 09:19:25;;;;;;;3.00;2.03;;;12.70;78.80;;;;;;4993889;28;20460;-70
2023/10/23 09:21:54;;;;;;;2.77;1.87;;;12.80;78.00;;;;;;4993761;28;20496;-70
2023/10/23 09:24:21;;;;;;;1.80;1.67;;;12.70;78.10;;;;;;4993851;28;20640;-71
2023/10/23 09:26:49;;;;;;;2.20;1.63;;;12.90;77.50;;;;;;4995660;28;20444;-71
2023/10/23 09:29:21;;;;;;;2.30;1.53;;;12.80;76.90;;;;;;4997414;28;21017;-72
2023/10/23 09:31:49;;;;;;;4.47;1.80;;;12.60;77.10;;;;;;4997580;28;20488;-71
2023/10/23 09:34:17;;;;;;;2.53;1.87;;;12.60;77.70;;;;;;4997615;28;20445;-69
2023/10/23 09:36:45;;;;;;;2.47;1.67;;;12.50;77.80;;;;;;4997669;28;20453;-69
2023/10/23 09:39:11;;;;;;;4.00;2.40;;;12.50;77.90;;;;;;4997307;28;20855;-70
2023/10/23 09:41:38;;;;;;;2.13;1.93;;;12.40;77.70;;;;;;4997477;28;20473;-70
2023/10/23 09:44:06;;;;;;;4.27;2.20;;;12.50;78.10;;;;;;4998636;28;20445;-70
2023/10/23 09:46:34;;;;;;;2.10;1.67;;;12.50;78.60;;;;;;5000925;28;20449;-70
2023/10/23 09:49:03;;;;;;;2.47;1.70;;;12.60;78.90;;;;;;4997150;28;20938;-70
2023/10/23 09:51:31;;;;;;;3.63;2.10;;;12.70;78.60;;;;;;4996985;28;21068;-70
2023/10/23 09:54:00;;;;;;;2.40;2.20;;;12.80;77.90;;;;;;4997430;28;20449;-72
2023/10/23 09:56:31;;;;;;;3.30;2.10;;;13.00;78.30;;;;;;4997615;28;20962;-71
2023/10/23 09:59:00;;;;;;;2.10;1.77;;;13.00;78.20;;;;;;4997509;28;20469;-70
2023/10/23 10:01:36;;;;;;;2.20;1.80;;;13.10;78.40;;;;;;4996864;28;20580;-70
2023/10/23 10:04:12;;;;;;;3.13;2.23;;;13.20;78.70;;;;;;4997146;28;20943;-72
2023/10/23 10:06:42;;;;;;;2.60;1.70;;;13.40;77.90;;;;;;4997165;28;20804;-71
2023/10/23 10:09:13;;;;;;;1.90;1.70;;;13.50;78.10;;;;;;4997094;28;20445;-71
2023/10/23 10:11:42;;;;;;;2.83;2.10;;;13.40;78.00;;;;;;4996591;28;20924;-70
2023/10/23 10:14:09;;;;;;;4.00;2.40;;;13.50;78.20;;;;;;5019224;23;20504;-75
2023/10/23 10:16:38;;;;;;;3.07;2.20;;;13.60;77.70;;;;;;4996661;28;20452;-75
2023/10/23 10:19:05;;;;;;;2.33;2.07;;;13.50;77.20;;;;;;4996701;28;20440;-77
2023/10/23 10:21:37;;;;;;;2.30;2.10;;;13.40;77.50;;;;;;4996995;28;20441;-77
2023/10/23 10:24:05;;;;;;;2.73;1.70;;;13.40;77.70;;;;;;4996604;28;20449;-78
2023/10/23 10:26:32;;;;;;;2.50;2.27;;;13.40;77.40;;;;;;4996590;28;20441;-78
2023/10/23 10:29:00;;;;;;;2.50;2.27;;;13.40;78.10;;;;;;4996550;28;20440;-77
2023/10/23 10:31:27;;;;;;;3.70;2.20;;;13.50;77.90;;;;;;4996456;28;20481;-78
2023/10/23 10:33:56;;;;;;;3.10;2.00;;;13.60;78.10;;;;;;4996347;28;20476;-77
2023/10/23 10:36:28;;;;;;;2.27;1.83;;;13.70;77.70;;;;;;4996360;28;20441;-77
2023/10/23 10:38:54;;;;;;;2.60;2.20;;;13.70;77.10;;;;;;4995202;28;20504;-77
2023/10/23 10:41:21;;;;;;;2.10;1.90;;;13.60;76.90;;;;;;4996313;28;20453;-77
2023/10/23 10:43:52;;;;;;;2.30;1.87;;;13.70;77.20;;;;;;4996363;28;20497;-78
2023/10/23 10:46:21;;;;;;;2.40;1.90;;;13.60;76.90;;;;;;4996390;28;20440;-78
2023/10/23 10:48:49;;;;;;;2.00;1.70;;;13.60;77.10;;;;;;4996239;28;20441;-78
2023/10/23 10:51:18;;;;;;;3.10;2.13;;;13.60;76.60;;;;;;4996171;28;20481;-77
2023/10/23 10:53:46;;;;;;;3.07;2.17;;;13.50;76.80;;;;;;4996170;28;20559;-78
2023/10/23 10:56:14;;;;;;;4.20;1.93;;;13.70;76.90;;;;;;4996136;28;20441;-77
2023/10/23 10:58:43;;;;;;;2.60;1.80;;;13.80;76.80;;;;;;4996116;28;20828;-77
2023/10/23 11:01:09;;;;;;;3.20;2.10;;;14.00;76.50;;;;;;4995895;28;20445;-76
2023/10/23 11:03:37;;;;;;;4.83;2.10;;;14.10;76.60;;;;;;4995788;28;20465;-76
2023/10/23 11:06:04;;;;;;;3.27;1.70;;;14.10;76.30;;;;;;4995799;28;20472;-76
2023/10/23 11:08:32;;;;;;;1.90;1.70;;;14.20;76.30;;;;;;4995792;28;20445;-76
2023/10/23 11:11:02;;;;;;;1.80;1.60;;;14.30;76.10;;;;;;4995429;28;20986;-76
2023/10/23 11:13:29;;;;;;;2.90;2.27;;;14.40;75.60;;;;;;4995447;28;20484;-76
2023/10/23 11:15:56;;;;;;;3.40;2.07;;;14.60;75.30;;;;;;4995669;28;20433;-76
2023/10/23 11:18:23;;;;;;;2.20;1.57;;;14.50;75.10;;;;;;4995635;28;20511;-76
2023/10/23 11:20:50;;;;;;;2.03;1.83;;;14.60;75.50;;;;;;4995567;28;20504;-76
2023/10/23 11:23:21;;;;;;;2.67;2.47;;;14.60;75.50;;;;;;4995440;28;20458;-76
2023/10/23 11:25:50;;;;;;;2.80;2.43;;;14.60;75.10;;;;;;4995546;28;20465;-75
2023/10/23 11:28:18;;;;;;;5.33;2.50;;;14.70;74.70;;;;;;4995469;28;20441;-76
2023/10/23 11:30:46;;;;;;;3.47;2.00;;;14.80;74.40;;;;;;4995265;28;20954;-76
2023/10/23 11:33:13;;;;;;;2.40;1.93;;;14.60;74.50;;;;;;4994917;28;21009;-76
2023/10/23 11:35:42;;;;;;;2.43;1.80;;;14.80;74.70;;;;;;4995341;28;20445;-75
2023/10/23 11:38:13;;;;;;;3.37;2.27;;;14.90;74.30;;;;;;4995477;28;20821;-76
2023/10/23 11:40:41;;;;;;;3.03;1.97;;;14.90;74.70;;;;;;5011394;28;20875;-75
2023/10/23 11:43:13;;;;;;;3.50;2.43;;;14.90;75.10;;;;;;5008814;28;20942;-77
2023/10/23 11:45:40;;;;;;;2.50;2.30;;;14.80;75.20;;;;;;4995322;28;20430;-76
2023/10/23 11:48:07;;;;;;;3.63;2.03;;;14.60;74.90;;;;;;4995114;28;20471;-76
2023/10/23 11:50:35;;;;;;;2.83;2.00;;;14.70;75.30;;;;;;4994878;28;20479;-76
2023/10/23 11:53:04;;;;;;;2.10;1.50;;;14.80;75.40;;;;;;4994986;28;20493;-77
2023/10/23 11:55:31;;;;;;;2.40;1.90;;;14.60;74.90;;;;;;4995056;28;20909;-76
2023/10/23 11:57:58;;;;;;;2.97;1.90;;;14.60;75.40;;;;;;4994805;28;20934;-76
2023/10/23 12:00:27;;;;;;;2.50;1.87;;;14.50;75.40;;;;;;4995012;28;20448;-77
2023/10/23 12:02:53;;;;;;;2.30;1.67;;;14.60;75.40;;;;;;4994901;28;20441;-77
2023/10/23 12:05:22;;;;;;;2.97;1.83;;;14.60;75.90;;;;;;4994565;28;20806;-75
2023/10/23 12:07:52;;;;;;;3.70;1.80;;;14.50;76.00;;;;;;4994896;28;20473;-77
2023/10/23 12:10:20;;;;;;;2.03;1.70;;;14.70;76.20;;;;;;4995048;28;20441;-76
2023/10/23 12:12:48;;;;;;;2.33;2.13;;;14.80;76.20;;;;;;4994707;28;20481;-76
2023/10/23 12:15:16;;;;;;;4.30;2.30;;;15.00;76.10;;;;;;4994284;28;21009;-75
2023/10/23 12:17:44;;;;;;;2.23;1.93;;;15.00;76.10;;;;;;4994682;28;20451;-75
2023/10/23 12:20:14;;;;;;;1.77;1.33;;;14.90;76.20;;;;;;4994338;28;20496;-74
2023/10/23 12:22:43;;;;;;;2.27;2.07;;;15.00;76.40;;;;;;4994587;28;20446;-75
2023/10/23 12:25:11;;;;;;;3.90;2.03;;;15.20;76.20;;;;;;4994498;28;20500;-75
2023/10/23 12:27:39;;;;;;;2.20;1.83;;;15.20;76.10;;;;;;4994480;28;20448;-75
2023/10/23 12:30:08;;;;;;;2.20;1.57;;;15.20;76.10;;;;;;4994447;28;20449;-75
2023/10/23 12:32:35;;;;;;;2.90;1.90;;;15.30;76.40;;;;;;4994283;28;20485;-76
2023/10/23 12:35:04;;;;;;;2.33;1.77;;;15.40;76.20;;;;;;4994017;28;20997;-75
2023/10/23 12:37:31;;;;;;;2.80;1.80;;;15.40;76.30;;;;;;4994326;28;20456;-75
2023/10/23 12:40:00;;;;;;;4.80;2.13;;;15.40;76.20;;;;;;4994270;28;20451;-75
2023/10/23 12:42:28;;;;;;;3.57;1.93;;;15.50;76.30;;;;;;4994256;28;20531;-75
2023/10/23 12:44:55;;;;;;;4.17;1.70;;;15.60;76.50;;;;;;4994193;28;20544;-75
2023/10/23 12:47:23;;;;;;;3.07;1.50;;;15.70;76.40;;;;;;4994267;28;20452;-75
2023/10/23 12:49:49;;;;;;;3.60;2.57;;;15.70;75.80;;;;;;4994211;28;20817;-76
2023/10/23 12:52:17;;;;;;;3.00;2.53;;;15.60;76.50;;;;;;4993769;28;20838;-75
2023/10/23 12:54:44;;;;;;;3.17;2.73;;;15.60;76.60;;;;;;4994011;28;20461;-75
2023/10/23 12:57:11;;;;;;;2.90;2.43;;;15.60;77.50;;;;;;4994063;28;20445;-75
2023/10/23 12:59:38;;;;;;;3.30;2.47;;;15.50;77.90;;;;;;4994070;28;20444;-75
2023/10/23 13:02:05;;;;;;;2.47;1.90;;;15.60;77.60;;;;;;4993353;28;20445;-75
2023/10/23 13:04:32;;;;;;;2.83;1.80;;;15.60;77.30;;;;;;4993906;28;20469;-75
2023/10/23 13:06:58;;;;;;;2.80;1.53;;;15.70;77.10;;;;;;4993944;28;20453;-75
2023/10/23 13:09:27;;;;;;;2.60;1.70;;;15.70;76.80;;;;;;4994002;28;20507;-75
2023/10/23 13:11:54;;;;;;;2.10;1.70;;;15.60;76.90;;;;;;4993834;28;20480;-75
2023/10/23 13:14:21;;;;;;;3.37;2.17;;;15.60;76.70;;;;;;4993530;28;20578;-75
2023/10/23 13:16:47;;;;;;;2.00;1.60;;;15.60;76.70;;;;;;4993851;28;20452;-75
2023/10/23 13:19:14;;;;;;;2.53;1.70;;;15.40;76.80;;;;;;4993948;28;20500;-75
2023/10/23 13:21:41;;;;;;;2.50;1.70;;;15.20;76.90;;;;;;4993960;28;20454;-75
2023/10/23 13:24:11;;;;;;;2.27;1.60;;;15.00;77.60;;;;;;4993767;28;20472;-75
2023/10/23 13:26:39;;;;;;;3.00;1.70;;;15.00;77.60;;;;;;4993813;28;20449;-75
2023/10/23 13:29:06;;;;;;;2.67;1.60;;;15.00;78.00;;;;;;4993851;28;20452;-75
2023/10/23 13:31:33;;;;;;;2.80;1.73;;;15.10;78.20;;;;;;4993788;28;20512;-75
2023/10/23 13:33:59;;;;;;;4.30;1.97;;;15.10;78.70;;;;;;4993295;28;20997;-75
2023/10/23 13:36:26;;;;;;;2.60;1.83;;;15.30;78.60;;;;;;4993733;28;20445;-75
2023/10/23 13:38:53;;;;;;;2.93;2.20;;;15.20;79.30;;;;;;4993685;28;20480;-75
2023/10/23 13:41:20;;;;;;;2.43;1.73;;;15.10;79.50;;;;;;4993738;28;20874;-75
2023/10/23 13:43:48;;;;;;;2.40;1.60;;;15.00;79.40;;;;;;4993610;28;20472;-75
2023/10/23 13:46:15;;;;;;;2.27;1.67;;;14.90;80.10;;;;;;4993640;28;20446;-75
2023/10/23 13:48:44;;;;;;;1.93;1.60;;;14.80;80.80;;;;;;4993584;28;20469;-75
2023/10/23 13:51:10;;;;;;;2.70;1.70;;;14.90;80.60;;;;;;4993840;28;20453;-78
2023/10/23 13:53:37;;;;;;;4.17;2.07;;;14.80;80.50;;;;;;4993502;28;20543;-77
2023/10/23 13:56:04;;;;;;;2.90;1.93;;;14.60;80.60;;;;;;4993286;28;20939;-77
2023/10/23 13:58:31;;;;;;;2.40;1.80;;;14.60;80.80;;;;;;4993587;28;20481;-77
2023/10/23 14:00:59;;;;;;;2.43;1.80;;;14.70;81.30;;;;;;4994370;28;20452;-77
2023/10/23 14:03:25;;;;;;;3.30;2.10;;;14.80;80.80;;;;;;4996150;28;20460;-77
2023/10/23 14:05:52;;;;;;;2.67;1.50;;;14.80;80.50;;;;;;4994404;28;20445;-76
2023/10/23 14:08:19;;;;;;;2.67;2.20;;;14.80;80.00;;;;;;4993426;28;20453;-75
2023/10/23 14:10:45;;;;;;;2.67;1.80;;;14.70;79.80;;;;;;4993398;28;20452;-75
2023/10/23 14:13:12;;;;;;;2.53;2.03;;;14.60;80.50;;;;;;4995415;28;20481;-76
2023/10/23 14:15:39;;;;;;;2.43;1.90;;;14.60;80.20;;;;;;4996694;28;20903;-75
2023/10/23 14:18:07;;;;;;;3.90;2.10;;;14.60;80.50;;;;;;4996585;28;20823;-75
2023/10/23 14:20:33;;;;;;;2.60;2.00;;;14.70;80.50;;;;;;4996852;28;20449;-75
2023/10/23 14:23:01;;;;;;;2.13;1.93;;;14.80;80.30;;;;;;4996503;28;20949;-76
2023/10/23 14:25:27;;;;;;;2.80;2.27;;;15.00;80.00;;;;;;4996863;28;20520;-75
2023/10/23 14:27:54;;;;;;;2.47;2.00;;;15.10;79.60;;;;;;4996845;28;20448;-76
2023/10/23 14:30:21;;;;;;;2.10;1.90;;;15.10;78.80;;;;;;4996700;28;20448;-75
2023/10/23 14:32:47;;;;;;;2.00;1.80;;;14.90;79.00;;;;;;4996536;28;20528;-75
2023/10/23 14:35:15;;;;;;;1.90;1.70;;;14.80;79.10;;;;;;4996540;28;20465;-75
2023/10/23 14:37:42;;;;;;;2.07;1.73;;;14.70;79.60;;;;;;4996503;28;20453;-75
2023/10/23 14:40:10;;;;;;;2.40;1.97;;;14.80;80.00;;;;;;4996540;28;20449;-75
2023/10/23 14:42:37;;;;;;;2.87;2.10;;;14.80;80.10;;;;;;4996620;28;20816;-75
2023/10/23 14:45:04;;;;;;;3.80;2.30;;;14.70;79.80;;;;;;4996443;28;20461;-76
2023/10/23 14:47:31;;;;;;;2.50;1.90;;;14.60;80.10;;;;;;4997250;28;20441;-77
2023/10/23 14:50:00;;;;;;;3.30;1.60;;;14.60;80.50;;;;;;4996437;28;20452;-76
2023/10/23 14:52:29;;;;;;;2.80;1.63;;;14.60;80.50;;;;;;4996248;28;20568;-76
2023/10/23 14:54:56;;;;;;;2.93;2.17;;;14.60;80.70;;;;;;4996143;28;20469;-76
2023/10/23 14:57:23;;;;;;;3.03;1.87;;;14.70;80.90;;;;;;4995888;28;20938;-75
2023/10/23 14:59:49;;;;;;;2.33;2.10;;;14.70;80.60;;;;;;4996183;28;20452;-77
2023/10/23 15:02:16;;;;;;;2.20;1.83;;;14.60;80.60;;;;;;4996142;28;20445;-78
2023/10/23 15:04:43;;;;;;;3.67;2.40;;;14.60;80.80;;;;;;4996093;28;20465;-77
2023/10/23 15:07:09;;;;;;;2.00;1.60;;;14.70;80.90;;;;;;4996017;28;20452;-76
2023/10/23 15:09:37;;;;;;;2.50;2.23;;;14.50;81.10;;;;;;4995989;28;20456;-76
2023/10/23 15:12:05;;;;;;;2.17;1.83;;;14.50;81.60;;;;;;4995908;28;20448;-76
2023/10/23 15:14:31;;;;;;;3.07;1.90;;;14.40;81.40;;;;;;4995490;28;20488;-75
2023/10/23 15:16:59;;;;;;;3.73;2.20;;;14.50;81.50;;;;;;4995841;28;20445;-75
2023/10/23 15:19:25;;;;;;;2.10;1.83;;;14.70;80.80;;;;;;4995793;28;20449;-75
2023/10/23 15:21:52;;;;;;;2.30;2.10;;;14.60;81.20;;;;;;4995720;28;20448;-76
2023/10/23 15:24:19;;;;;;;3.10;2.40;;;14.70;80.80;;;;;;4994595;28;20844;-75
2023/10/23 15:26:48;;;;;;;3.60;2.13;;;14.80;81.10;;;;;;4995616;28;20807;-76
2023/10/23 15:29:14;;;;;;;2.90;2.43;;;14.60;81.10;;;;;;4995612;28;20445;-76
2023/10/23 15:31:41;;;;;;;4.00;2.67;;;14.30;81.70;;;;;;4995564;28;20449;-76
2023/10/23 15:34:08;;;;;;;2.33;2.13;;;14.20;82.40;;;;;;4995378;28;20489;-75
2023/10/23 15:36:35;;;;;;;2.43;2.00;;;14.40;82.10;;;;;;4995139;28;20939;-76
2023/10/23 15:39:02;;;;;;;2.80;2.20;;;14.40;81.70;;;;;;4995426;28;20452;-75
2023/10/23 15:41:29;;;;;;;2.40;2.00;;;14.50;81.70;;;;;;4995377;28;20503;-76
2023/10/23 15:43:57;;;;;;;3.23;2.63;;;14.30;82.10;;;;;;4995180;28;20467;-76
2023/10/23 15:46:23;;;;;;;3.03;2.73;;;14.30;82.70;;;;;;4995242;28;20496;-76
2023/10/23 15:48:51;;;;;;;2.53;2.27;;;14.30;82.10;;;;;;4995229;28;20446;-76
2023/10/23 15:51:18;;;;;;;2.47;2.10;;;14.40;82.00;;;;;;4995202;28;20449;-76
2023/10/23 15:53:45;;;;;;;2.50;1.80;;;14.30;82.00;;;;;;4995007;28;20543;-76
2023/10/23 15:56:11;;;;;;;2.30;2.10;;;14.30;82.40;;;;;;4995122;28;20452;-76
2023/10/23 15:58:38;;;;;;;1.80;1.50;;;14.10;82.70;;;;;;4995125;28;20444;-76
2023/10/23 16:01:06;;;;;;;5.40;2.57;;;14.00;83.00;;;;;;4994966;28;20457;-75
2023/10/23 16:03:34;;;;;;;2.47;1.97;;;14.00;83.10;;;;;;4994889;28;20548;-76
2023/10/23 16:06:03;;;;;;;2.50;2.20;;;14.00;82.80;;;;;;4994888;28;20480;-76
2023/10/23 16:08:29;;;;;;;2.87;2.07;;;14.00;82.90;;;;;;4994830;28;20441;-76
2023/10/23 16:10:56;;;;;;;3.57;2.27;;;14.00;83.00;;;;;;4994808;28;20481;-76
2023/10/23 16:13:23;;;;;;;4.00;2.00;;;13.90;83.30;;;;;;5047898;23;20550;-72
2023/10/23 16:15:50;;;;;;;2.30;2.10;;;14.00;83.20;;;;;;4994900;28;20453;-73
2023/10/23 16:18:18;;;;;;;2.50;2.30;;;14.10;83.20;;;;;;4995076;28;20445;-73
2023/10/23 16:20:50;;;;;;;2.63;1.80;;;14.10;83.00;;;;;;4995587;28;20557;-73
2023/10/23 16:23:17;;;;;;;2.00;1.80;;;14.30;82.50;;;;;;4994869;28;20803;-73
2023/10/23 16:25:44;;;;;;;2.60;2.23;;;14.00;83.40;;;;;;4994520;28;20444;-73
2023/10/23 16:28:12;;;;;;;2.30;2.10;;;13.80;84.10;;;;;;4994238;28;20441;-73
2023/10/23 16:30:39;;;;;;;2.13;1.90;;;13.90;84.20;;;;;;4994528;28;20540;-73
2023/10/23 16:33:07;;;;;;;1.93;1.60;;;14.00;83.80;;;;;;4994352;28;20481;-73
2023/10/23 16:35:35;;;;;;;2.20;1.77;;;14.10;83.40;;;;;;4993161;28;20843;-73
2023/10/23 16:38:02;;;;;;;2.23;1.80;;;14.00;83.10;;;;;;4994335;28;20629;-73
2023/10/23 16:40:32;;;;;;;2.10;1.83;;;13.80;83.90;;;;;;4994416;28;20453;-72
2023/10/23 16:42:59;;;;;;;3.77;2.60;;;13.80;84.30;;;;;;4994095;28;20819;-73
2023/10/23 16:45:27;;;;;;;4.90;4.60;;;13.80;84.70;;;;;;4994159;28;20469;-73
2023/10/23 16:47:54;;;;;;;7.37;6.77;;;13.90;83.90;;;;;;4994350;28;20449;-73
2023/10/23 16:50:21;;;;;;;4.60;4.13;;;14.00;83.60;;;;;;4994100;28;20450;-73